sensor_id;sensor_type;location;lat;lon;timestamp;temperature;humidity
34989;DHT22;21192;40.182;44.516;2023-04-19T00:00:39;19.00;60.00
34989;DHT22;21192;40.182;44.516;2023-04-19T00:03:05;19.00;59.90
34989;DHT22;21192;40.182;44.516;2023-04-19T00:05:31;19.10;59.90
34989;DHT22;21192;40.182;44.516;2023-04-19T00:07:57;19.10;59.80
34989;DHT22;21192;40.182;44.516;2023-04-19T00:10:23;19.10;59.80
34989;DHT22;21192;40.182;44.516;2023-04-19T00:12:50;19.10;59.80
34989;DHT22;21192;40.182;44.516;2023-04-19T00:15:15;19.10;60.10
34989;DHT22;21192;40.182;44.516;2023-04-19T00:17:41;19.10;60.30
34989;DHT22;21192;40.182;44.516;2023-04-19T00:20:07;19.10;60.60
34989;DHT22;21192;40.182;44.516;2023-04-19T00:22:34;19.10;60.90
34989;DHT22;21192;40.182;44.516;2023-04-19T00:25:00;19.10;61.00
34989;DHT22;21192;40.182;44.516;2023-04-19T00:27:26;19.00;61.00
34989;DHT22;21192;40.182;44.516;2023-04-19T00:29:52;19.00;61.20
34989;DHT22;21192;40.182;44.516;2023-04-19T00:32:18;19.00;61.40
34989;DHT22;21192;40.182;44.516;2023-04-19T00:34:44;19.00;61.60
34989;DHT22;21192;40.182;44.516;2023-04-19T00:37:10;19.00;61.80
34989;DHT22;21192;40.182;44.516;2023-04-19T00:39:36;19.00;62.00
34989;DHT22;21192;40.182;44.516;2023-04-19T00:42:02;18.90;62.10
34989;DHT22;21192;40.182;44.516;2023-04-19T00:44:28;18.80;62.50
34989;DHT22;21192;40.182;44.516;2023-04-19T00:46:55;18.80;62.70
34989;DHT22;21192;40.182;44.516;2023-04-19T00:49:22;18.60;62.80
34989;DHT22;21192;40.182;44.516;2023-04-19T00:51:49;18.50;63.10
34989;DHT22;21192;40.182;44.516;2023-04-19T00:54:15;18.40;63.40
34989;DHT22;21192;40.182;44.516;2023-04-19T00:56:43;18.40;63.70
34989;DHT22;21192;40.182;44.516;2023-04-19T00:59:10;18.40;63.80
34989;DHT22;21192;40.182;44.516;2023-04-19T01:01:37;18.40;64.00
34989;DHT22;21192;40.182;44.516;2023-04-19T01:04:04;18.40;64.00
34989;DHT22;21192;40.182;44.516;2023-04-19T01:06:31;18.50;64.10
34989;DHT22;21192;40.182;44.516;2023-04-19T01:08:57;18.50;64.10
34989;DHT22;21192;40.182;44.516;2023-04-19T01:11:23;18.50;63.80
34989;DHT22;21192;40.182;44.516;2023-04-19T01:13:50;18.60;63.90
34989;DHT22;21192;40.182;44.516;2023-04-19T01:16:16;18.60;64.20
34989;DHT22;21192;40.182;44.516;2023-04-19T01:18:42;18.60;64.70
34989;DHT22;21192;40.182;44.516;2023-04-19T01:21:08;18.60;64.90
34989;DHT22;21192;40.182;44.516;2023-04-19T01:23:35;18.60;65.10
34989;DHT22;21192;40.182;44.516;2023-04-19T01:26:01;18.60;65.30
34989;DHT22;21192;40.182;44.516;2023-04-19T01:28:27;18.60;66.70
34989;DHT22;21192;40.182;44.516;2023-04-19T01:30:53;18.50;66.80
34989;DHT22;21192;40.182;44.516;2023-04-19T01:33:20;18.30;67.90
34989;DHT22;21192;40.182;44.516;2023-04-19T01:35:46;18.10;69.20
34989;DHT22;21192;40.182;44.516;2023-04-19T01:38:13;18.00;70.10
34989;DHT22;21192;40.182;44.516;2023-04-19T01:40:39;17.90;71.00
34989;DHT22;21192;40.182;44.516;2023-04-19T01:43:06;17.90;71.10
34989;DHT22;21192;40.182;44.516;2023-04-19T01:45:32;18.00;71.10
34989;DHT22;21192;40.182;44.516;2023-04-19T01:47:59;17.80;71.50
34989;DHT22;21192;40.182;44.516;2023-04-19T01:50:27;17.90;71.60
34989;DHT22;21192;40.182;44.516;2023-04-19T01:52:53;17.90;71.60
34989;DHT22;21192;40.182;44.516;2023-04-19T01:55:19;17.90;71.60
34989;DHT22;21192;40.182;44.516;2023-04-19T01:57:44;18.00;71.80
34989;DHT22;21192;40.182;44.516;2023-04-19T02:00:11;18.00;71.60
34989;DHT22;21192;40.182;44.516;2023-04-19T02:02:37;18.00;71.30
34989;DHT22;21192;40.182;44.516;2023-04-19T02:05:05;18.10;71.30
34989;DHT22;21192;40.182;44.516;2023-04-19T02:07:31;18.10;71.60
34989;DHT22;21192;40.182;44.516;2023-04-19T02:09:56;18.00;72.10
34989;DHT22;21192;40.182;44.516;2023-04-19T02:12:26;17.90;72.60
34989;DHT22;21192;40.182;44.516;2023-04-19T02:14:53;17.80;73.40
34989;DHT22;21192;40.182;44.516;2023-04-19T02:17:24;17.80;73.70
34989;DHT22;21192;40.182;44.516;2023-04-19T02:19:51;17.70;74.10
34989;DHT22;21192;40.182;44.516;2023-04-19T02:22:17;17.60;74.90
34989;DHT22;21192;40.182;44.516;2023-04-19T02:24:43;17.60;75.20
34989;DHT22;21192;40.182;44.516;2023-04-19T02:27:10;17.60;75.30
34989;DHT22;21192;40.182;44.516;2023-04-19T02:29:37;17.70;75.40
34989;DHT22;21192;40.182;44.516;2023-04-19T02:32:03;17.70;75.90
34989;DHT22;21192;40.182;44.516;2023-04-19T02:34:33;17.70;76.20
34989;DHT22;21192;40.182;44.516;2023-04-19T02:36:59;17.70;76.30
34989;DHT22;21192;40.182;44.516;2023-04-19T02:39:25;17.80;76.30
34989;DHT22;21192;40.182;44.516;2023-04-19T02:41:51;17.70;76.30
34989;DHT22;21192;40.182;44.516;2023-04-19T02:44:17;17.70;76.60
34989;DHT22;21192;40.182;44.516;2023-04-19T02:46:53;17.70;76.70
34989;DHT22;21192;40.182;44.516;2023-04-19T02:49:20;17.70;76.60
34989;DHT22;21192;40.182;44.516;2023-04-19T02:51:46;17.70;77.20
34989;DHT22;21192;40.182;44.516;2023-04-19T02:54:12;17.80;77.70
34989;DHT22;21192;40.182;44.516;2023-04-19T02:56:38;17.80;77.70
34989;DHT22;21192;40.182;44.516;2023-04-19T02:59:04;17.90;77.70
34989;DHT22;21192;40.182;44.516;2023-04-19T03:01:31;17.80;78.20
34989;DHT22;21192;40.182;44.516;2023-04-19T03:03:56;17.60;78.70
34989;DHT22;21192;40.182;44.516;2023-04-19T03:06:22;17.50;78.90
34989;DHT22;21192;40.182;44.516;2023-04-19T03:08:48;17.30;80.10
34989;DHT22;21192;40.182;44.516;2023-04-19T03:11:17;17.30;80.90
34989;DHT22;21192;40.182;44.516;2023-04-19T03:13:44;17.40;80.70
34989;DHT22;21192;40.182;44.516;2023-04-19T03:16:09;17.50;80.90
34989;DHT22;21192;40.182;44.516;2023-04-19T03:18:35;17.50;81.10
34989;DHT22;21192;40.182;44.516;2023-04-19T03:21:02;17.60;81.10
34989;DHT22;21192;40.182;44.516;2023-04-19T03:23:29;17.50;81.30
34989;DHT22;21192;40.182;44.516;2023-04-19T03:25:54;17.50;81.70
34989;DHT22;21192;40.182;44.516;2023-04-19T03:28:21;17.30;82.00
34989;DHT22;21192;40.182;44.516;2023-04-19T03:30:47;17.20;82.40
34989;DHT22;21192;40.182;44.516;2023-04-19T03:33:13;17.30;82.60
34989;DHT22;21192;40.182;44.516;2023-04-19T03:35:39;17.30;82.70
34989;DHT22;21192;40.182;44.516;2023-04-19T03:38:05;17.30;83.10
34989;DHT22;21192;40.182;44.516;2023-04-19T03:40:32;17.40;83.20
34989;DHT22;21192;40.182;44.516;2023-04-19T03:42:58;17.40;83.20
34989;DHT22;21192;40.182;44.516;2023-04-19T03:45:24;17.40;83.40
34989;DHT22;21192;40.182;44.516;2023-04-19T03:47:50;17.40;83.40
34989;DHT22;21192;40.182;44.516;2023-04-19T03:50:15;17.50;83.10
34989;DHT22;21192;40.182;44.516;2023-04-19T03:52:41;17.50;83.00
34989;DHT22;21192;40.182;44.516;2023-04-19T03:55:08;17.50;83.10
34989;DHT22;21192;40.182;44.516;2023-04-19T03:57:34;17.40;83.80
34989;DHT22;21192;40.182;44.516;2023-04-19T04:00:00;17.30;84.70
34989;DHT22;21192;40.182;44.516;2023-04-19T04:02:26;17.30;85.40
34989;DHT22;21192;40.182;44.516;2023-04-19T04:04:54;17.50;85.70
34989;DHT22;21192;40.182;44.516;2023-04-19T04:07:21;18.00;84.20
34989;DHT22;21192;40.182;44.516;2023-04-19T04:09:48;18.40;81.80
34989;DHT22;21192;40.182;44.516;2023-04-19T04:12:14;18.60;80.40
34989;DHT22;21192;40.182;44.516;2023-04-19T04:14:40;18.80;80.20
34989;DHT22;21192;40.182;44.516;2023-04-19T04:17:05;18.80;80.10
34989;DHT22;21192;40.182;44.516;2023-04-19T04:19:32;18.90;79.30
34989;DHT22;21192;40.182;44.516;2023-04-19T04:21:57;19.00;78.90
34989;DHT22;21192;40.182;44.516;2023-04-19T04:24:23;18.90;77.90
34989;DHT22;21192;40.182;44.516;2023-04-19T04:26:50;18.90;76.60
34989;DHT22;21192;40.182;44.516;2023-04-19T04:29:16;18.90;75.90
34989;DHT22;21192;40.182;44.516;2023-04-19T04:31:42;18.80;76.00
34989;DHT22;21192;40.182;44.516;2023-04-19T04:34:08;18.70;75.90
34989;DHT22;21192;40.182;44.516;2023-04-19T04:36:35;18.70;75.60
34989;DHT22;21192;40.182;44.516;2023-04-19T04:39:04;18.70;75.00
34989;DHT22;21192;40.182;44.516;2023-04-19T04:41:31;18.70;74.80
34989;DHT22;21192;40.182;44.516;2023-04-19T04:43:57;18.70;75.10
34989;DHT22;21192;40.182;44.516;2023-04-19T04:46:25;18.70;75.50
34989;DHT22;21192;40.182;44.516;2023-04-19T04:48:51;18.70;75.60
34989;DHT22;21192;40.182;44.516;2023-04-19T04:51:18;18.50;75.40
34989;DHT22;21192;40.182;44.516;2023-04-19T04:53:44;18.60;75.10
34989;DHT22;21192;40.182;44.516;2023-04-19T04:56:11;18.50;75.00
34989;DHT22;21192;40.182;44.516;2023-04-19T04:58:37;18.60;74.70
34989;DHT22;21192;40.182;44.516;2023-04-19T05:01:03;18.70;74.70
34989;DHT22;21192;40.182;44.516;2023-04-19T05:03:29;18.80;74.50
34989;DHT22;21192;40.182;44.516;2023-04-19T05:05:55;19.00;74.30
34989;DHT22;21192;40.182;44.516;2023-04-19T05:08:21;19.10;73.80
34989;DHT22;21192;40.182;44.516;2023-04-19T05:10:47;19.20;73.20
34989;DHT22;21192;40.182;44.516;2023-04-19T05:13:12;19.70;72.40
34989;DHT22;21192;40.182;44.516;2023-04-19T05:15:38;19.90;71.40
34989;DHT22;21192;40.182;44.516;2023-04-19T05:18:04;20.60;70.30
34989;DHT22;21192;40.182;44.516;2023-04-19T05:20:30;23.30;67.00
34989;DHT22;21192;40.182;44.516;2023-04-19T05:22:59;25.00;60.90
34989;DHT22;21192;40.182;44.516;2023-04-19T05:25:25;25.50;56.90
34989;DHT22;21192;40.182;44.516;2023-04-19T05:27:51;25.40;55.50
34989;DHT22;21192;40.182;44.516;2023-04-19T05:30:17;25.40;54.90
34989;DHT22;21192;40.182;44.516;2023-04-19T05:32:43;25.60;54.40
34989;DHT22;21192;40.182;44.516;2023-04-19T05:35:09;25.60;53.90
34989;DHT22;21192;40.182;44.516;2023-04-19T05:37:36;25.50;53.60
34989;DHT22;21192;40.182;44.516;2023-04-19T05:40:03;25.50;53.50
34989;DHT22;21192;40.182;44.516;2023-04-19T05:42:34;25.40;52.90
34989;DHT22;21192;40.182;44.516;2023-04-19T05:45:00;25.30;51.90
34989;DHT22;21192;40.182;44.516;2023-04-19T05:47:26;25.20;51.60
34989;DHT22;21192;40.182;44.516;2023-04-19T05:49:52;25.20;51.30
34989;DHT22;21192;40.182;44.516;2023-04-19T05:52:18;25.20;51.00
34989;DHT22;21192;40.182;44.516;2023-04-19T05:54:44;25.20;50.80
34989;DHT22;21192;40.182;44.516;2023-04-19T05:57:09;25.10;50.80
34989;DHT22;21192;40.182;44.516;2023-04-19T05:59:35;25.00;51.00
34989;DHT22;21192;40.182;44.516;2023-04-19T06:02:01;24.90;51.20
34989;DHT22;21192;40.182;44.516;2023-04-19T06:04:27;25.00;51.00
34989;DHT22;21192;40.182;44.516;2023-04-19T06:06:53;24.80;50.90
34989;DHT22;21192;40.182;44.516;2023-04-19T06:09:19;24.70;51.00
34989;DHT22;21192;40.182;44.516;2023-04-19T06:11:45;24.80;51.20
34989;DHT22;21192;40.182;44.516;2023-04-19T06:14:11;24.90;51.00
34989;DHT22;21192;40.182;44.516;2023-04-19T06:16:40;24.90;50.50
34989;DHT22;21192;40.182;44.516;2023-04-19T06:19:06;24.80;50.80
34989;DHT22;21192;40.182;44.516;2023-04-19T06:21:35;24.80;50.90
34989;DHT22;21192;40.182;44.516;2023-04-19T06:24:01;24.50;50.60
34989;DHT22;21192;40.182;44.516;2023-04-19T06:26:27;24.40;50.60
34989;DHT22;21192;40.182;44.516;2023-04-19T06:28:52;24.40;50.70
34989;DHT22;21192;40.182;44.516;2023-04-19T06:31:18;24.30;50.80
34989;DHT22;21192;40.182;44.516;2023-04-19T06:33:44;24.20;51.60
34989;DHT22;21192;40.182;44.516;2023-04-19T06:36:10;24.20;52.30
34989;DHT22;21192;40.182;44.516;2023-04-19T06:38:36;24.20;52.40
34989;DHT22;21192;40.182;44.516;2023-04-19T06:41:06;24.20;51.70
34989;DHT22;21192;40.182;44.516;2023-04-19T06:43:32;24.20;51.40
34989;DHT22;21192;40.182;44.516;2023-04-19T06:45:59;24.20;51.20
34989;DHT22;21192;40.182;44.516;2023-04-19T06:48:24;24.20;51.10
34989;DHT22;21192;40.182;44.516;2023-04-19T06:50:51;24.40;51.10
34989;DHT22;21192;40.182;44.516;2023-04-19T06:53:16;24.40;51.00
34989;DHT22;21192;40.182;44.516;2023-04-19T06:55:43;24.20;51.20
34989;DHT22;21192;40.182;44.516;2023-04-19T06:58:09;24.20;51.20
34989;DHT22;21192;40.182;44.516;2023-04-19T07:00:35;24.00;51.50
34989;DHT22;21192;40.182;44.516;2023-04-19T07:03:01;23.90;52.00
34989;DHT22;21192;40.182;44.516;2023-04-19T07:05:28;24.00;51.80
34989;DHT22;21192;40.182;44.516;2023-04-19T07:07:54;24.00;51.80
34989;DHT22;21192;40.182;44.516;2023-04-19T07:10:20;23.80;51.90
34989;DHT22;21192;40.182;44.516;2023-04-19T07:12:46;23.60;52.20
34989;DHT22;21192;40.182;44.516;2023-04-19T07:15:12;23.70;52.90
34989;DHT22;21192;40.182;44.516;2023-04-19T07:17:38;23.70;52.50
34989;DHT22;21192;40.182;44.516;2023-04-19T07:20:05;23.60;52.60
34989;DHT22;21192;40.182;44.516;2023-04-19T07:22:31;23.70;52.50
34989;DHT22;21192;40.182;44.516;2023-04-19T07:24:57;23.60;52.40
34989;DHT22;21192;40.182;44.516;2023-04-19T07:27:24;23.40;52.70
34989;DHT22;21192;40.182;44.516;2023-04-19T07:29:50;23.20;52.90
34989;DHT22;21192;40.182;44.516;2023-04-19T07:32:16;23.10;53.20
34989;DHT22;21192;40.182;44.516;2023-04-19T07:34:42;23.10;53.30
34989;DHT22;21192;40.182;44.516;2023-04-19T07:37:10;23.00;53.40
34989;DHT22;21192;40.182;44.516;2023-04-19T07:39:35;22.90;53.40
34989;DHT22;21192;40.182;44.516;2023-04-19T07:42:01;22.90;53.50
34989;DHT22;21192;40.182;44.516;2023-04-19T07:44:27;22.90;53.50
34989;DHT22;21192;40.182;44.516;2023-04-19T07:46:53;22.80;53.50
34989;DHT22;21192;40.182;44.516;2023-04-19T07:49:19;22.80;53.80
34989;DHT22;21192;40.182;44.516;2023-04-19T07:51:45;22.80;53.90
34989;DHT22;21192;40.182;44.516;2023-04-19T07:54:11;22.80;53.90
34989;DHT22;21192;40.182;44.516;2023-04-19T07:56:37;22.80;53.70
34989;DHT22;21192;40.182;44.516;2023-04-19T07:59:03;22.80;53.70
34989;DHT22;21192;40.182;44.516;2023-04-19T08:01:29;22.90;53.70
34989;DHT22;21192;40.182;44.516;2023-04-19T08:03:55;22.90;53.50
34989;DHT22;21192;40.182;44.516;2023-04-19T08:06:21;22.80;53.60
34989;DHT22;21192;40.182;44.516;2023-04-19T08:08:47;22.80;53.50
34989;DHT22;21192;40.182;44.516;2023-04-19T08:11:13;22.70;53.60
34989;DHT22;21192;40.182;44.516;2023-04-19T08:13:39;22.70;53.50
34989;DHT22;21192;40.182;44.516;2023-04-19T08:16:05;22.60;53.80
34989;DHT22;21192;40.182;44.516;2023-04-19T08:18:33;22.60;54.20
34989;DHT22;21192;40.182;44.516;2023-04-19T08:21:00;22.60;54.20
34989;DHT22;21192;40.182;44.516;2023-04-19T08:23:25;22.60;54.20
34989;DHT22;21192;40.182;44.516;2023-04-19T08:25:51;22.70;54.20
34989;DHT22;21192;40.182;44.516;2023-04-19T08:28:17;22.70;54.20
34989;DHT22;21192;40.182;44.516;2023-04-19T08:30:43;22.80;54.00
34989;DHT22;21192;40.182;44.516;2023-04-19T08:33:09;22.80;53.50
34989;DHT22;21192;40.182;44.516;2023-04-19T08:35:37;22.80;53.00
34989;DHT22;21192;40.182;44.516;2023-04-19T08:38:03;22.90;53.00
34989;DHT22;21192;40.182;44.516;2023-04-19T08:40:30;22.80;53.80
34989;DHT22;21192;40.182;44.516;2023-04-19T08:42:56;22.80;53.20
34989;DHT22;21192;40.182;44.516;2023-04-19T08:45:26;22.80;53.20
34989;DHT22;21192;40.182;44.516;2023-04-19T08:47:53;22.80;52.50
34989;DHT22;21192;40.182;44.516;2023-04-19T08:50:19;22.90;52.50
34989;DHT22;21192;40.182;44.516;2023-04-19T08:52:48;22.90;52.20
34989;DHT22;21192;40.182;44.516;2023-04-19T08:55:14;22.90;52.00
34989;DHT22;21192;40.182;44.516;2023-04-19T08:57:41;22.80;51.70
34989;DHT22;21192;40.182;44.516;2023-04-19T09:00:07;22.80;51.90
34989;DHT22;21192;40.182;44.516;2023-04-19T09:02:49;22.70;51.50
34989;DHT22;21192;40.182;44.516;2023-04-19T09:05:17;22.70;51.30
34989;DHT22;21192;40.182;44.516;2023-04-19T09:07:44;22.80;51.60
34989;DHT22;21192;40.182;44.516;2023-04-19T09:10:19;22.80;51.70
34989;DHT22;21192;40.182;44.516;2023-04-19T09:13:02;22.80;51.90
34989;DHT22;21192;40.182;44.516;2023-04-19T09:15:39;22.70;51.80
34989;DHT22;21192;40.182;44.516;2023-04-19T09:18:07;22.80;51.70
34989;DHT22;21192;40.182;44.516;2023-04-19T09:20:44;22.80;51.50
34989;DHT22;21192;40.182;44.516;2023-04-19T09:23:11;22.90;51.50
34989;DHT22;21192;40.182;44.516;2023-04-19T09:25:38;22.90;51.00
34989;DHT22;21192;40.182;44.516;2023-04-19T09:28:13;22.90;50.90
34989;DHT22;21192;40.182;44.516;2023-04-19T09:30:40;22.90;50.90
34989;DHT22;21192;40.182;44.516;2023-04-19T09:33:07;22.90;51.20
34989;DHT22;21192;40.182;44.516;2023-04-19T09:35:43;22.80;51.30
34989;DHT22;21192;40.182;44.516;2023-04-19T09:38:12;22.70;51.20
34989;DHT22;21192;40.182;44.516;2023-04-19T09:40:40;22.70;51.50
34989;DHT22;21192;40.182;44.516;2023-04-19T09:43:06;22.70;51.40
34989;DHT22;21192;40.182;44.516;2023-04-19T09:45:40;22.70;51.00
34989;DHT22;21192;40.182;44.516;2023-04-19T09:48:07;22.70;50.80
34989;DHT22;21192;40.182;44.516;2023-04-19T09:50:33;22.70;50.80
34989;DHT22;21192;40.182;44.516;2023-04-19T09:53:00;22.70;50.60
34989;DHT22;21192;40.182;44.516;2023-04-19T09:55:26;22.70;50.40
34989;DHT22;21192;40.182;44.516;2023-04-19T09:57:53;22.70;50.00
34989;DHT22;21192;40.182;44.516;2023-04-19T10:00:19;22.70;49.70
34989;DHT22;21192;40.182;44.516;2023-04-19T10:02:46;22.70;49.60
34989;DHT22;21192;40.182;44.516;2023-04-19T10:05:20;22.70;49.60
34989;DHT22;21192;40.182;44.516;2023-04-19T10:07:48;22.70;49.40
34989;DHT22;21192;40.182;44.516;2023-04-19T10:10:16;22.80;49.40
34989;DHT22;21192;40.182;44.516;2023-04-19T10:12:48;22.80;49.30
34989;DHT22;21192;40.182;44.516;2023-04-19T10:15:16;22.80;49.40
34989;DHT22;21192;40.182;44.516;2023-04-19T10:17:42;22.80;49.30
34989;DHT22;21192;40.182;44.516;2023-04-19T10:20:12;22.90;49.30
34989;DHT22;21192;40.182;44.516;2023-04-19T10:22:42;23.00;49.40
34989;DHT22;21192;40.182;44.516;2023-04-19T10:25:12;23.10;49.30
34989;DHT22;21192;40.182;44.516;2023-04-19T10:27:39;23.20;49.10
34989;DHT22;21192;40.182;44.516;2023-04-19T10:30:06;23.20;49.20
34989;DHT22;21192;40.182;44.516;2023-04-19T10:32:42;23.20;49.00
34989;DHT22;21192;40.182;44.516;2023-04-19T10:35:08;23.20;48.70
34989;DHT22;21192;40.182;44.516;2023-04-19T10:37:38;23.20;48.60
34989;DHT22;21192;40.182;44.516;2023-04-19T10:40:05;23.20;48.40
34989;DHT22;21192;40.182;44.516;2023-04-19T10:43:16;23.30;48.50
34989;DHT22;21192;40.182;44.516;2023-04-19T10:45:42;23.40;48.20
34989;DHT22;21192;40.182;44.516;2023-04-19T10:51:02;23.60;46.60
34989;DHT22;21192;40.182;44.516;2023-04-19T10:53:55;23.80;46.30
34989;DHT22;21192;40.182;44.516;2023-04-19T11:01:49;24.00;45.70
34989;DHT22;21192;40.182;44.516;2023-04-19T11:09:43;24.00;45.80
34989;DHT22;21192;40.182;44.516;2023-04-19T11:12:11;24.00;46.10
34989;DHT22;21192;40.182;44.516;2023-04-19T11:14:52;24.00;45.90
34989;DHT22;21192;40.182;44.516;2023-04-19T11:17:29;24.00;45.80
34989;DHT22;21192;40.182;44.516;2023-04-19T11:20:06;24.00;45.70
34989;DHT22;21192;40.182;44.516;2023-04-19T11:22:44;24.00;45.80
34989;DHT22;21192;40.182;44.516;2023-04-19T11:25:18;24.00;45.80
34989;DHT22;21192;40.182;44.516;2023-04-19T11:27:49;24.10;45.50
34989;DHT22;21192;40.182;44.516;2023-04-19T11:30:19;24.10;45.50
34989;DHT22;21192;40.182;44.516;2023-04-19T11:32:53;24.10;45.40
34989;DHT22;21192;40.182;44.516;2023-04-19T11:35:20;24.20;45.20
34989;DHT22;21192;40.182;44.516;2023-04-19T11:37:47;24.30;45.10
34989;DHT22;21192;40.182;44.516;2023-04-19T11:40:18;24.20;45.10
34989;DHT22;21192;40.182;44.516;2023-04-19T11:42:45;24.20;45.20
34989;DHT22;21192;40.182;44.516;2023-04-19T11:45:12;24.30;45.20
34989;DHT22;21192;40.182;44.516;2023-04-19T11:47:49;24.30;44.90
34989;DHT22;21192;40.182;44.516;2023-04-19T11:50:39;24.30;44.60
34989;DHT22;21192;40.182;44.516;2023-04-19T11:53:16;24.20;44.40
34989;DHT22;21192;40.182;44.516;2023-04-19T11:55:56;24.30;44.20
34989;DHT22;21192;40.182;44.516;2023-04-19T11:58:43;24.30;44.20
34989;DHT22;21192;40.182;44.516;2023-04-19T12:01:20;24.30;44.40
34989;DHT22;21192;40.182;44.516;2023-04-19T12:03:54;24.40;44.40
34989;DHT22;21192;40.182;44.516;2023-04-19T12:06:28;24.40;44.30
34989;DHT22;21192;40.182;44.516;2023-04-19T12:08:55;24.40;44.10
34989;DHT22;21192;40.182;44.516;2023-04-19T12:11:25;24.40;44.30
34989;DHT22;21192;40.182;44.516;2023-04-19T12:16:35;24.50;44.60
34989;DHT22;21192;40.182;44.516;2023-04-19T12:19:13;24.60;44.50
34989;DHT22;21192;40.182;44.516;2023-04-19T12:21:39;24.60;44.40
34989;DHT22;21192;40.182;44.516;2023-04-19T12:24:06;24.70;44.40
34989;DHT22;21192;40.182;44.516;2023-04-19T12:26:32;24.70;44.40
34989;DHT22;21192;40.182;44.516;2023-04-19T12:29:00;24.70;44.50
34989;DHT22;21192;40.182;44.516;2023-04-19T12:31:27;24.60;44.60
34989;DHT22;21192;40.182;44.516;2023-04-19T12:33:53;24.60;44.70
34989;DHT22;21192;40.182;44.516;2023-04-19T12:36:19;24.60;44.70
34989;DHT22;21192;40.182;44.516;2023-04-19T12:38:45;24.70;44.80
34989;DHT22;21192;40.182;44.516;2023-04-19T12:41:11;24.80;45.00
34989;DHT22;21192;40.182;44.516;2023-04-19T12:43:37;25.00;44.90
34989;DHT22;21192;40.182;44.516;2023-04-19T12:46:04;25.10;44.80
34989;DHT22;21192;40.182;44.516;2023-04-19T12:48:30;25.20;44.70
34989;DHT22;21192;40.182;44.516;2023-04-19T12:50:55;25.20;44.60
34989;DHT22;21192;40.182;44.516;2023-04-19T12:53:21;25.20;44.60
34989;DHT22;21192;40.182;44.516;2023-04-19T12:55:49;25.20;44.80
34989;DHT22;21192;40.182;44.516;2023-04-19T12:58:18;25.20;44.80
34989;DHT22;21192;40.182;44.516;2023-04-19T13:00:46;25.20;44.70
34989;DHT22;21192;40.182;44.516;2023-04-19T13:03:12;25.20;44.50
34989;DHT22;21192;40.182;44.516;2023-04-19T13:05:38;25.00;44.90
34989;DHT22;21192;40.182;44.516;2023-04-19T13:08:04;24.90;44.40
34989;DHT22;21192;40.182;44.516;2023-04-19T13:10:30;24.80;44.60
34989;DHT22;21192;40.182;44.516;2023-04-19T13:12:56;24.90;44.60
34989;DHT22;21192;40.182;44.516;2023-04-19T13:15:24;24.90;44.60
34989;DHT22;21192;40.182;44.516;2023-04-19T13:17:50;24.80;44.50
34989;DHT22;21192;40.182;44.516;2023-04-19T13:20:18;24.80;44.60
34989;DHT22;21192;40.182;44.516;2023-04-19T13:22:44;24.70;44.60
34989;DHT22;21192;40.182;44.516;2023-04-19T13:25:10;24.70;44.60
34989;DHT22;21192;40.182;44.516;2023-04-19T13:27:36;24.60;44.70
34989;DHT22;21192;40.182;44.516;2023-04-19T13:30:02;24.60;44.90
34989;DHT22;21192;40.182;44.516;2023-04-19T13:32:28;24.60;44.90
34989;DHT22;21192;40.182;44.516;2023-04-19T13:34:54;24.60;44.90
34989;DHT22;21192;40.182;44.516;2023-04-19T13:37:20;24.50;45.00
34989;DHT22;21192;40.182;44.516;2023-04-19T13:39:46;24.50;45.30
34989;DHT22;21192;40.182;44.516;2023-04-19T13:42:12;24.40;45.00
34989;DHT22;21192;40.182;44.516;2023-04-19T13:44:38;24.40;44.90
34989;DHT22;21192;40.182;44.516;2023-04-19T13:47:04;24.40;45.10
34989;DHT22;21192;40.182;44.516;2023-04-19T13:49:31;24.40;45.30
34989;DHT22;21192;40.182;44.516;2023-04-19T13:51:56;24.40;45.50
34989;DHT22;21192;40.182;44.516;2023-04-19T13:54:22;24.30;45.40
34989;DHT22;21192;40.182;44.516;2023-04-19T13:56:48;24.30;45.50
34989;DHT22;21192;40.182;44.516;2023-04-19T13:59:14;24.20;45.40
34989;DHT22;21192;40.182;44.516;2023-04-19T14:01:40;24.10;45.60
34989;DHT22;21192;40.182;44.516;2023-04-19T14:04:06;24.10;45.70
34989;DHT22;21192;40.182;44.516;2023-04-19T14:06:32;24.00;45.90
34989;DHT22;21192;40.182;44.516;2023-04-19T14:08:58;23.90;46.30
34989;DHT22;21192;40.182;44.516;2023-04-19T14:11:26;23.80;46.50
34989;DHT22;21192;40.182;44.516;2023-04-19T14:13:53;23.80;46.60
34989;DHT22;21192;40.182;44.516;2023-04-19T14:16:19;23.70;46.70
34989;DHT22;21192;40.182;44.516;2023-04-19T14:18:45;23.70;46.80
34989;DHT22;21192;40.182;44.516;2023-04-19T14:21:11;23.60;46.90
34989;DHT22;21192;40.182;44.516;2023-04-19T14:23:37;23.50;47.50
34989;DHT22;21192;40.182;44.516;2023-04-19T14:26:03;23.40;47.30
34989;DHT22;21192;40.182;44.516;2023-04-19T14:28:28;23.40;47.50
34989;DHT22;21192;40.182;44.516;2023-04-19T14:30:54;23.40;47.70
34989;DHT22;21192;40.182;44.516;2023-04-19T14:33:20;23.40;47.80
34989;DHT22;21192;40.182;44.516;2023-04-19T14:35:46;23.30;48.40
34989;DHT22;21192;40.182;44.516;2023-04-19T14:38:12;23.20;48.80
34989;DHT22;21192;40.182;44.516;2023-04-19T14:40:37;23.10;49.00
34989;DHT22;21192;40.182;44.516;2023-04-19T14:43:03;23.10;48.90
34989;DHT22;21192;40.182;44.516;2023-04-19T14:45:30;23.00;49.00
34989;DHT22;21192;40.182;44.516;2023-04-19T14:47:56;23.00;49.00
34989;DHT22;21192;40.182;44.516;2023-04-19T14:50:21;23.00;49.10
34989;DHT22;21192;40.182;44.516;2023-04-19T14:52:47;22.90;49.20
34989;DHT22;21192;40.182;44.516;2023-04-19T14:55:13;22.90;49.20
34989;DHT22;21192;40.182;44.516;2023-04-19T14:57:39;22.90;49.30
34989;DHT22;21192;40.182;44.516;2023-04-19T15:00:05;22.90;49.30
34989;DHT22;21192;40.182;44.516;2023-04-19T15:02:31;22.90;49.40
34989;DHT22;21192;40.182;44.516;2023-04-19T15:04:57;22.80;49.40
34989;DHT22;21192;40.182;44.516;2023-04-19T15:07:23;22.90;49.50
34989;DHT22;21192;40.182;44.516;2023-04-19T15:09:49;22.80;49.60
34989;DHT22;21192;40.182;44.516;2023-04-19T15:12:15;22.80;49.80
34989;DHT22;21192;40.182;44.516;2023-04-19T15:14:41;22.70;49.90
34989;DHT22;21192;40.182;44.516;2023-04-19T15:17:07;22.70;50.00
34989;DHT22;21192;40.182;44.516;2023-04-19T15:19:34;22.70;50.10
34989;DHT22;21192;40.182;44.516;2023-04-19T15:22:00;22.60;50.20
34989;DHT22;21192;40.182;44.516;2023-04-19T15:24:28;22.60;50.40
34989;DHT22;21192;40.182;44.516;2023-04-19T15:26:55;22.50;50.50
34989;DHT22;21192;40.182;44.516;2023-04-19T15:29:21;22.50;50.70
34989;DHT22;21192;40.182;44.516;2023-04-19T15:31:47;22.40;50.80